createdAt,value
2023-03-11T00:01:11.236Z,100.00
2023-03-11T00:03:45.089Z,100.00
2023-03-11T00:06:18.809Z,100.00
2023-03-11T00:08:48.904Z,100.00
2023-03-11T00:11:20.350Z,100.00
2023-03-11T00:13:52.645Z,100.00
2023-03-11T00:16:23.019Z,100.00
2023-03-11T00:18:54.822Z,100.00
2023-03-11T00:21:27.728Z,100.00
2023-03-11T00:24:01.559Z,100.00
2023-03-11T00:26:32.885Z,100.00
2023-03-11T00:29:03.565Z,100.00
2023-03-11T00:31:34.436Z,100.00
2023-03-11T00:34:09.686Z,100.00
2023-03-11T00:36:45.436Z,100.00
2023-03-11T00:39:18.585Z,100.00
2023-03-11T00:41:48.771Z,100.00
2023-03-11T00:44:19.227Z,100.00
2023-03-11T00:46:51.963Z,100.00
2023-03-11T00:49:22.461Z,100.00
2023-03-11T00:51:55.852Z,100.00
2023-03-11T00:54:25.977Z,100.00
2023-03-11T00:56:58.760Z,100.00
2023-03-11T00:59:30.324Z,100.00
2023-03-11T01:02:04.547Z,100.00
2023-03-11T01:04:39.621Z,100.00
2023-03-11T01:07:17.930Z,100.00
2023-03-11T01:09:48.134Z,100.00
2023-03-11T01:12:21.209Z,100.00
2023-03-11T01:14:54.561Z,100.00
2023-03-11T01:17:25.069Z,100.00
2023-03-11T01:20:01.006Z,100.00
2023-03-11T01:22:35.343Z,100.00
2023-03-11T01:25:07.672Z,100.00
2023-03-11T01:27:37.791Z,100.00
2023-03-11T01:30:09.246Z,100.00
2023-03-11T01:32:39.545Z,100.00
2023-03-11T01:35:10.859Z,100.00
2023-03-11T01:37:46.426Z,100.00
2023-03-11T01:40:32.369Z,100.00
2023-03-11T01:43:08.816Z,100.00
2023-03-11T01:45:45.310Z,100.00
2023-03-11T01:48:15.783Z,100.00
2023-03-11T01:50:50.149Z,100.00
2023-03-11T01:53:33.196Z,100.00
2023-03-11T01:56:08.705Z,100.00
2023-03-11T01:58:45.395Z,100.00
2023-03-11T02:01:18.633Z,100.00
2023-03-11T02:03:51.664Z,100.00
2023-03-11T02:06:26.320Z,100.00
2023-03-11T02:09:09.365Z,100.00
2023-03-11T02:11:39.875Z,100.00
2023-03-11T02:14:12.761Z,100.00
2023-03-11T02:16:42.878Z,100.00
2023-03-11T02:19:26.104Z,100.00
2023-03-11T02:21:56.623Z,100.00
2023-03-11T02:24:43.302Z,100.00
2023-03-11T02:27:21.477Z,100.00
2023-03-11T02:29:54.816Z,100.00
2023-03-11T02:32:26.199Z,100.00
2023-03-11T02:34:56.476Z,100.00
2023-03-11T02:37:26.809Z,100.00
2023-03-11T02:40:38.164Z,100.00
2023-03-11T02:43:14.665Z,100.00
2023-03-11T02:45:48.474Z,100.00
2023-03-11T02:48:19.870Z,100.00
2023-03-11T02:50:50.352Z,100.00
2023-03-11T02:53:23.322Z,100.00
2023-03-11T02:55:53.866Z,100.00
2023-03-11T02:58:26.835Z,100.00
2023-03-11T03:00:57.301Z,100.00
2023-03-11T03:03:27.487Z,100.00
2023-03-11T03:05:57.807Z,100.00
2023-03-11T03:08:28.004Z,100.00
2023-03-11T03:11:00.125Z,100.00
2023-03-11T03:13:33.822Z,100.00
2023-03-11T03:16:05.806Z,100.00
2023-03-11T03:18:36.446Z,100.00
2023-03-11T03:21:07.223Z,100.00
2023-03-11T03:23:38.035Z,100.00
2023-03-11T03:26:09.271Z,100.00
2023-03-11T03:28:44.343Z,100.00
2023-03-11T03:31:14.944Z,100.00
2023-03-11T03:33:46.778Z,100.00
2023-03-11T03:36:18.704Z,100.00
2023-03-11T03:38:59.672Z,100.00
2023-03-11T03:41:35.010Z,100.00
2023-03-11T03:44:08.643Z,100.00
2023-03-11T03:46:39.762Z,100.00
2023-03-11T03:49:13.056Z,100.00
2023-03-11T03:51:43.553Z,100.00
2023-03-11T03:54:20.961Z,100.00
2023-03-11T03:56:51.160Z,100.00
2023-03-11T03:59:24.579Z,100.00
2023-03-11T04:02:00.734Z,100.00
2023-03-11T04:04:33.633Z,100.00
2023-03-11T04:07:03.996Z,100.00
2023-03-11T04:09:34.191Z,100.00
2023-03-11T04:12:04.556Z,100.00
2023-03-11T04:14:40.160Z,100.00
2023-03-11T04:17:10.494Z,100.00
2023-03-11T04:19:40.764Z,100.00
2023-03-11T04:22:11.654Z,100.00
2023-03-11T04:24:42.940Z,100.00
2023-03-11T04:27:13.210Z,100.00
2023-03-11T04:29:46.539Z,100.00
2023-03-11T04:32:16.702Z,100.00
2023-03-11T04:34:49.503Z,100.00
2023-03-11T04:37:23.067Z,100.00
2023-03-11T04:39:55.332Z,100.00
2023-03-11T04:42:26.484Z,100.00
2023-03-11T04:45:00.259Z,100.00
2023-03-11T04:47:33.541Z,100.00
2023-03-11T04:50:06.893Z,100.00
2023-03-11T04:52:42.547Z,100.00
2023-03-11T04:55:16.929Z,100.00
2023-03-11T04:57:49.428Z,100.00
2023-03-11T05:00:27.261Z,100.00
2023-03-11T05:03:09.812Z,100.00
2023-03-11T05:05:40.189Z,100.00
2023-03-11T05:08:11.098Z,98.38
2023-03-11T05:10:43.069Z,94.89
2023-03-11T05:13:13.976Z,98.87
2023-03-11T05:15:53.303Z,100.00
2023-03-11T05:18:24.860Z,100.00
2023-03-11T05:20:57.778Z,86.08
2023-03-11T05:23:31.842Z,86.61
2023-03-11T05:26:02.466Z,82.51
2023-03-11T05:28:35.369Z,82.03
2023-03-11T05:31:18.178Z,85.59
2023-03-11T05:33:49.722Z,87.48
2023-03-11T05:36:19.938Z,85.42
2023-03-11T05:38:51.332Z,79.43
2023-03-11T05:41:22.656Z,82.57
2023-03-11T05:43:53.510Z,82.27
2023-03-11T05:46:29.156Z,77.58
2023-03-11T05:49:00.460Z,75.03
2023-03-11T05:51:31.562Z,77.70
2023-03-11T05:54:02.558Z,69.87
2023-03-11T05:56:41.686Z,67.18
2023-03-11T05:59:16.397Z,68.70
2023-03-11T06:01:51.770Z,67.24
2023-03-11T06:04:22.348Z,66.87
2023-03-11T06:06:53.096Z,68.03
2023-03-11T06:09:26.786Z,65.40
2023-03-11T06:11:57.371Z,65.56
2023-03-11T06:14:33.566Z,66.99
2023-03-11T06:17:07.815Z,68.15
2023-03-11T06:19:38.446Z,67.88
2023-03-11T06:22:12.837Z,68.76
2023-03-11T06:24:43.159Z,67.93
2023-03-11T06:27:14.617Z,70.06
2023-03-11T06:29:47.672Z,67.61
2023-03-11T06:32:22.013Z,68.42
2023-03-11T06:34:55.749Z,72.06
2023-03-11T06:37:27.817Z,71.11
2023-03-11T06:39:59.700Z,68.07
2023-03-11T06:42:30.370Z,69.84
2023-03-11T06:45:02.994Z,70.20
2023-03-11T06:47:36.508Z,71.29
2023-03-11T06:50:09.361Z,66.40
2023-03-11T06:52:40.364Z,70.09
2023-03-11T06:55:12.501Z,69.95
2023-03-11T06:57:45.934Z,69.34
2023-03-11T07:00:18.092Z,66.32
2023-03-11T07:02:56.416Z,65.14
2023-03-11T07:05:28.576Z,62.35
2023-03-11T07:08:04.538Z,63.18
2023-03-11T07:10:35.901Z,63.63
2023-03-11T07:13:06.723Z,62.47
2023-03-11T07:15:37.220Z,62.18
2023-03-11T07:18:10.162Z,61.70
2023-03-11T07:20:40.606Z,60.06
2023-03-11T07:23:10.760Z,62.35
2023-03-11T07:25:41.070Z,62.61
2023-03-11T07:28:11.429Z,60.66
2023-03-11T07:30:44.607Z,59.85
2023-03-11T07:33:18.751Z,61.33
2023-03-11T07:35:50.261Z,63.27
2023-03-11T07:38:21.120Z,62.86
2023-03-11T07:41:00.545Z,64.02
2023-03-11T07:43:32.871Z,63.24
2023-03-11T07:46:08.245Z,63.76
2023-03-11T07:48:42.502Z,60.75
2023-03-11T07:51:17.220Z,61.32
2023-03-11T07:53:47.961Z,62.30
2023-03-11T07:56:20.387Z,61.93
2023-03-11T07:58:51.048Z,64.38
2023-03-11T08:01:24.445Z,63.69
2023-03-11T08:03:59.535Z,65.67
2023-03-11T08:06:32.679Z,63.51
2023-03-11T08:09:04.895Z,63.09
2023-03-11T08:11:35.749Z,61.57
2023-03-11T08:14:07.626Z,64.77
2023-03-11T08:16:37.830Z,61.95
2023-03-11T08:19:10.800Z,64.03
2023-03-11T08:21:41.024Z,63.86
2023-03-11T08:24:13.727Z,63.77
2023-03-11T08:26:44.418Z,62.20
2023-03-11T08:29:14.584Z,62.76
2023-03-11T08:31:45.050Z,67.10
2023-03-11T08:34:21.789Z,61.84
2023-03-11T08:36:52.560Z,61.68
2023-03-11T08:39:24.319Z,63.22
2023-03-11T08:41:54.875Z,61.46
2023-03-11T08:44:25.384Z,60.27
2023-03-11T08:46:55.990Z,62.35
2023-03-11T08:49:29.309Z,62.38
2023-03-11T08:51:59.633Z,61.96
2023-03-11T08:54:29.797Z,60.96
2023-03-11T08:57:03.113Z,61.74
2023-03-11T08:59:35.257Z,61.25
2023-03-11T09:02:05.419Z,58.77
2023-03-11T09:04:39.102Z,58.99
2023-03-11T09:07:09.186Z,57.90
2023-03-11T09:09:39.550Z,57.20
2023-03-11T09:12:14.584Z,58.66
2023-03-11T09:14:44.683Z,58.28
2023-03-11T09:17:15.304Z,58.00
2023-03-11T09:19:48.163Z,58.38
2023-03-11T09:22:20.316Z,59.68
2023-03-11T09:24:50.354Z,56.78
2023-03-11T09:27:24.274Z,57.51
2023-03-11T09:29:55.876Z,57.33
2023-03-11T09:32:30.821Z,55.71
2023-03-11T09:35:04.709Z,55.25
2023-03-11T09:37:36.560Z,56.79
2023-03-11T09:40:08.122Z,55.15
2023-03-11T09:42:46.079Z,53.82
2023-03-11T09:45:22.147Z,52.96
2023-03-11T09:48:10.706Z,53.94
2023-03-11T09:50:51.318Z,53.59
2023-03-11T09:53:36.733Z,54.36
2023-03-11T09:56:10.330Z,52.92
2023-03-11T09:58:47.358Z,53.67
2023-03-11T10:01:25.250Z,54.72
2023-03-11T10:03:58.997Z,53.05
2023-03-11T10:06:34.135Z,53.86
2023-03-11T10:09:13.787Z,53.53
2023-03-11T10:11:55.037Z,53.22
2023-03-11T10:14:49.955Z,54.15
2023-03-11T10:17:34.889Z,52.99
2023-03-11T10:20:13.981Z,53.60
2023-03-11T10:22:56.181Z,52.50
2023-03-11T10:25:30.702Z,53.42
2023-03-11T10:28:05.866Z,52.29
2023-03-11T10:30:43.992Z,54.14
2023-03-11T10:33:25.511Z,52.26
2023-03-11T10:35:57.860Z,51.92
2023-03-11T10:38:36.019Z,52.85
2023-03-11T10:41:14.205Z,53.37
2023-03-11T10:43:49.811Z,53.30
2023-03-11T10:46:24.146Z,50.61
2023-03-11T10:48:54.596Z,52.66
2023-03-11T10:51:27.195Z,51.85
2023-03-11T10:54:01.958Z,51.94
2023-03-11T10:56:34.580Z,50.21
2023-03-11T10:59:06.834Z,50.25
2023-03-11T11:01:37.592Z,49.87
2023-03-11T11:04:30.321Z,49.92
2023-03-11T11:07:01.621Z,49.51
2023-03-11T11:09:38.058Z,50.96
2023-03-11T11:12:09.929Z,50.95
2023-03-11T11:14:51.852Z,49.80
2023-03-11T11:17:27.444Z,49.51
2023-03-11T11:19:59.412Z,50.74
2023-03-11T11:22:32.416Z,49.32
2023-03-11T11:25:05.145Z,47.51
2023-03-11T11:27:35.269Z,50.48
2023-03-11T11:30:19.045Z,48.91
2023-03-11T11:32:49.402Z,47.11
2023-03-11T11:35:20.611Z,48.72
2023-03-11T11:37:52.683Z,49.37
2023-03-11T11:40:30.656Z,48.89
2023-03-11T11:43:04.357Z,49.46
2023-03-11T11:45:41.373Z,48.95
2023-03-11T11:48:21.018Z,49.26
2023-03-11T11:50:56.477Z,50.00
2023-03-11T11:53:38.355Z,48.76
2023-03-11T11:56:11.098Z,51.35
2023-03-11T11:58:42.896Z,49.50
2023-03-11T12:01:19.600Z,49.52
2023-03-11T12:04:28.617Z,51.16
2023-03-11T12:07:14.902Z,50.00
2023-03-11T12:09:55.117Z,49.58
2023-03-11T12:12:35.718Z,51.56
2023-03-11T12:15:14.764Z,51.42
2023-03-11T12:17:48.007Z,50.50
2023-03-11T12:20:28.042Z,48.06
2023-03-11T12:23:18.554Z,48.81
2023-03-11T12:26:00.810Z,48.50
2023-03-11T12:28:42.277Z,48.17
2023-03-11T12:31:15.327Z,48.55
2023-03-11T12:33:48.918Z,50.64
2023-03-11T12:36:31.330Z,50.00
2023-03-11T12:39:05.553Z,50.42
2023-03-11T12:41:39.924Z,51.21
2023-03-11T12:44:29.021Z,50.97
2023-03-11T12:47:20.991Z,50.64
2023-03-11T12:49:51.917Z,52.72
2023-03-11T12:52:34.554Z,50.84
2023-03-11T12:55:34.727Z,50.88
2023-03-11T12:58:30.090Z,49.53
2023-03-11T13:01:20.584Z,49.68
2023-03-11T13:04:01.604Z,49.34
2023-03-11T13:07:04.913Z,50.92
2023-03-11T13:09:35.662Z,50.45
2023-03-11T13:12:05.789Z,51.48
2023-03-11T13:14:39.275Z,50.98
2023-03-11T13:17:31.042Z,50.83
2023-03-11T13:20:02.809Z,50.42
2023-03-11T13:23:17.816Z,50.73
2023-03-11T13:26:01.078Z,50.63
2023-03-11T13:29:13.289Z,50.93
2023-03-11T13:31:59.159Z,50.19
2023-03-11T13:34:41.971Z,49.56
2023-03-11T13:37:28.365Z,48.92
2023-03-11T13:40:22.318Z,49.05
2023-03-11T13:42:58.122Z,50.49
2023-03-11T13:45:34.624Z,50.47
2023-03-11T13:48:11.109Z,50.61
2023-03-11T13:50:49.001Z,52.01
2023-03-11T13:53:26.110Z,52.81
2023-03-11T13:55:56.380Z,51.06
2023-03-11T13:58:29.087Z,51.21
2023-03-11T14:01:02.554Z,51.67
2023-03-11T14:03:39.577Z,50.27
2023-03-11T14:06:19.725Z,50.98
2023-03-11T14:08:56.365Z,48.91
2023-03-11T14:11:30.222Z,49.63
2023-03-11T14:14:00.040Z,50.99
2023-03-11T14:16:36.469Z,50.09
2023-03-11T14:19:11.537Z,50.43
2023-03-11T14:21:48.731Z,49.33
2023-03-11T14:24:21.498Z,49.41
2023-03-11T14:26:55.319Z,50.22
2023-03-11T14:29:29.381Z,50.75
2023-03-11T14:31:59.731Z,51.09
2023-03-11T14:34:31.902Z,51.43
2023-03-11T14:37:05.324Z,51.68
2023-03-11T14:39:36.902Z,51.03
2023-03-11T14:42:18.957Z,52.80
2023-03-11T14:44:54.780Z,53.76
2023-03-11T14:47:32.733Z,54.97
2023-03-11T14:50:04.050Z,54.03
2023-03-11T14:52:44.584Z,53.09
2023-03-11T14:55:18.498Z,53.70
2023-03-11T14:57:49.646Z,52.18
2023-03-11T15:00:25.816Z,53.20
2023-03-11T15:03:19.765Z,53.77
2023-03-11T15:05:53.200Z,54.91
2023-03-11T15:08:30.940Z,53.71
2023-03-11T15:11:09.883Z,53.86
2023-03-11T15:13:42.107Z,54.75
2023-03-11T15:16:26.717Z,54.09
2023-03-11T15:18:57.800Z,54.00
2023-03-11T15:21:28.311Z,53.59
2023-03-11T15:24:07.024Z,53.63
2023-03-11T15:26:38.579Z,52.45
2023-03-11T15:29:17.409Z,52.42
2023-03-11T15:31:48.739Z,52.71
2023-03-11T15:34:28.666Z,55.75
2023-03-11T15:37:02.792Z,54.57
2023-03-11T15:39:48.692Z,55.24
2023-03-11T15:42:23.172Z,55.69
2023-03-11T15:45:05.820Z,55.97
2023-03-11T15:47:36.223Z,56.37
2023-03-11T15:50:24.238Z,56.81
2023-03-11T15:52:57.333Z,55.53
2023-03-11T15:55:30.818Z,57.70
2023-03-11T15:58:05.582Z,56.85
2023-03-11T16:00:36.578Z,56.94
2023-03-11T16:03:07.817Z,58.02
2023-03-11T16:05:37.940Z,58.03
2023-03-11T16:08:08.441Z,58.29
2023-03-11T16:10:42.664Z,57.83
2023-03-11T16:13:15.757Z,57.85
2023-03-11T16:15:47.316Z,59.19
2023-03-11T16:18:17.604Z,57.85
2023-03-11T16:20:50.997Z,58.07
2023-03-11T16:23:23.907Z,59.24
2023-03-11T16:25:58.786Z,59.58
2023-03-11T16:28:28.908Z,59.37
2023-03-11T16:31:05.259Z,59.83
2023-03-11T16:33:38.043Z,59.73
2023-03-11T16:36:09.263Z,60.80
2023-03-11T16:38:47.250Z,60.99
2023-03-11T16:41:20.889Z,59.49
2023-03-11T16:43:51.267Z,60.12
2023-03-11T16:46:21.616Z,60.40
2023-03-11T16:48:53.693Z,61.30
2023-03-11T16:51:23.929Z,60.98
2023-03-11T16:53:54.311Z,61.15
2023-03-11T16:56:32.274Z,61.62
2023-03-11T16:59:02.519Z,62.22
2023-03-11T17:01:34.568Z,63.63
2023-03-11T17:04:06.567Z,64.70
2023-03-11T17:06:40.423Z,64.92
2023-03-11T17:09:12.048Z,64.49
2023-03-11T17:11:50.569Z,64.93
2023-03-11T17:14:22.936Z,66.16
2023-03-11T17:16:54.725Z,63.42
2023-03-11T17:19:25.204Z,64.90
2023-03-11T17:21:58.506Z,64.90
2023-03-11T17:24:31.472Z,65.64
2023-03-11T17:27:05.051Z,66.90
2023-03-11T17:29:49.226Z,65.70
2023-03-11T17:32:24.415Z,66.42
2023-03-11T17:35:00.286Z,66.89
2023-03-11T17:37:30.497Z,66.44
2023-03-11T17:40:01.032Z,65.01
2023-03-11T17:42:34.161Z,66.40
2023-03-11T17:45:05.438Z,64.92
2023-03-11T17:47:44.045Z,67.49
2023-03-11T17:50:17.402Z,66.65
2023-03-11T17:52:49.918Z,66.41
2023-03-11T17:55:24.786Z,66.67
2023-03-11T17:58:04.803Z,67.40
2023-03-11T18:00:37.936Z,67.69
2023-03-11T18:03:10.089Z,67.40
2023-03-11T18:05:40.406Z,69.24
2023-03-11T18:08:11.269Z,68.50
2023-03-11T18:10:41.355Z,68.68
2023-03-11T18:13:15.030Z,68.45
2023-03-11T18:15:45.620Z,69.60
2023-03-11T18:18:16.330Z,70.25
2023-03-11T18:20:48.170Z,71.34
2023-03-11T18:23:21.390Z,71.80
2023-03-11T18:25:56.848Z,72.13
2023-03-11T18:28:33.313Z,71.95
2023-03-11T18:31:09.483Z,73.20
2023-03-11T18:33:51.263Z,74.30
2023-03-11T18:36:31.905Z,75.47
2023-03-11T18:39:05.429Z,76.21
2023-03-11T18:41:37.697Z,75.72
2023-03-11T18:44:12.570Z,76.94
2023-03-11T18:46:46.638Z,79.37
2023-03-11T18:49:17.280Z,80.76
2023-03-11T18:51:48.006Z,80.03
2023-03-11T18:54:18.668Z,80.66
2023-03-11T18:56:49.943Z,81.36
2023-03-11T18:59:24.572Z,82.04
2023-03-11T19:01:58.959Z,83.71
2023-03-11T19:04:30.082Z,85.34
2023-03-11T19:07:00.483Z,85.27
2023-03-11T19:09:32.210Z,84.92
2023-03-11T19:12:06.192Z,82.50
2023-03-11T19:14:44.158Z,82.32
2023-03-11T19:17:16.635Z,82.13
2023-03-11T19:19:53.965Z,82.74
2023-03-11T19:22:27.169Z,83.46
2023-03-11T19:25:01.130Z,82.02
2023-03-11T19:27:35.359Z,82.98
2023-03-11T19:30:17.173Z,82.85
2023-03-11T19:32:52.330Z,84.23
2023-03-11T19:35:24.847Z,84.34
2023-03-11T19:38:00.784Z,80.56
2023-03-11T19:40:39.296Z,81.57
2023-03-11T19:43:11.402Z,81.25
2023-03-11T19:45:45.518Z,79.85
2023-03-11T19:48:17.184Z,78.45
2023-03-11T19:50:50.142Z,78.14
2023-03-11T19:53:22.266Z,79.66
2023-03-11T19:55:55.718Z,79.19
2023-03-11T19:58:30.913Z,79.89
2023-03-11T20:01:05.170Z,81.58
2023-03-11T20:03:38.589Z,81.96
2023-03-11T20:06:11.341Z,82.21
2023-03-11T20:08:48.109Z,83.62
2023-03-11T20:11:24.400Z,85.26
2023-03-11T20:13:58.276Z,86.32
2023-03-11T20:16:32.126Z,86.09
2023-03-11T20:19:04.051Z,87.89
2023-03-11T20:21:43.884Z,89.06
2023-03-11T20:24:16.292Z,92.93
2023-03-11T20:26:51.370Z,93.27
2023-03-11T20:29:22.077Z,94.23
2023-03-11T20:31:59.014Z,94.15
2023-03-11T20:34:29.637Z,94.37
2023-03-11T20:37:03.358Z,96.11
2023-03-11T20:39:34.589Z,96.76
2023-03-11T20:42:05.353Z,98.66
2023-03-11T20:44:47.942Z,97.48
2023-03-11T20:47:21.075Z,99.89
2023-03-11T20:49:51.970Z,97.90
2023-03-11T20:52:22.135Z,96.75
2023-03-11T20:54:52.730Z,99.24
2023-03-11T20:57:24.081Z,97.85
2023-03-11T20:59:54.935Z,96.06
2023-03-11T21:02:30.754Z,95.25
2023-03-11T21:05:06.722Z,95.38
2023-03-11T21:07:37.654Z,94.94
2023-03-11T21:10:12.859Z,94.97
2023-03-11T21:12:46.065Z,96.75
2023-03-11T21:15:17.505Z,97.28
2023-03-11T21:17:50.770Z,97.68
2023-03-11T21:20:30.016Z,99.16
2023-03-11T21:23:04.054Z,100.00
2023-03-11T21:25:42.951Z,100.00
2023-03-11T21:28:14.200Z,100.00
2023-03-11T21:30:48.841Z,100.00
2023-03-11T21:33:25.157Z,100.00
2023-03-11T21:35:59.579Z,100.00
2023-03-11T21:38:33.168Z,100.00
2023-03-11T21:41:14.435Z,100.00
2023-03-11T21:43:46.695Z,100.00
2023-03-11T21:46:21.150Z,100.00
2023-03-11T21:48:54.786Z,100.00
2023-03-11T21:51:27.495Z,100.00
2023-03-11T21:54:00.258Z,100.00
2023-03-11T21:56:32.120Z,100.00
2023-03-11T21:59:03.985Z,100.00
2023-03-11T22:01:35.503Z,100.00
2023-03-11T22:04:09.126Z,100.00
2023-03-11T22:06:40.850Z,100.00
2023-03-11T22:09:11.047Z,100.00
2023-03-11T22:11:42.220Z,100.00
2023-03-11T22:14:13.524Z,100.00
2023-03-11T22:16:49.411Z,100.00
2023-03-11T22:19:26.199Z,100.00
2023-03-11T22:22:01.282Z,100.00
2023-03-11T22:24:31.961Z,100.00
2023-03-11T22:27:08.202Z,100.00
2023-03-11T22:29:44.462Z,100.00
2023-03-11T22:32:14.882Z,100.00
2023-03-11T22:34:48.789Z,100.00
2023-03-11T22:37:19.156Z,100.00
2023-03-11T22:39:50.156Z,100.00
2023-03-11T22:42:21.224Z,100.00
2023-03-11T22:44:52.286Z,100.00
2023-03-11T22:47:24.278Z,100.00
2023-03-11T22:49:57.504Z,100.00
2023-03-11T22:52:29.526Z,100.00
2023-03-11T22:54:59.912Z,100.00
2023-03-11T22:57:39.460Z,100.00
2023-03-11T23:00:19.284Z,100.00
2023-03-11T23:02:50.864Z,100.00
2023-03-11T23:05:25.356Z,100.00
2023-03-11T23:07:55.718Z,100.00
2023-03-11T23:10:26.131Z,100.00
2023-03-11T23:12:56.773Z,100.00
2023-03-11T23:15:30.084Z,100.00
2023-03-11T23:18:01.305Z,100.00
2023-03-11T23:20:39.854Z,100.00
2023-03-11T23:23:15.012Z,100.00
2023-03-11T23:25:45.271Z,100.00
2023-03-11T23:28:15.591Z,100.00
2023-03-11T23:30:47.573Z,100.00
2023-03-11T23:33:18.040Z,100.00
2023-03-11T23:35:52.446Z,100.00
2023-03-11T23:38:24.271Z,100.00
2023-03-11T23:40:56.252Z,100.00
2023-03-11T23:43:27.490Z,100.00
2023-03-11T23:45:58.634Z,100.00
2023-03-11T23:48:28.959Z,100.00
2023-03-11T23:51:03.329Z,100.00
2023-03-11T23:53:35.054Z,100.00
2023-03-11T23:56:11.778Z,100.00
2023-03-11T23:58:44.227Z,100.00
